Jerseyville, Illinois
Current Conditions -  °F | °C
As of 12:41 PM on Thursday 27 Nov 2014 (Local Time) from KSET Reporting Station
Broken Clouds Broken Clouds  
Wind Chill: 21°   Ceiling: 3500
Heat Index: 31°   Visibility: 10mi
Dew Point: 22°   Wind: 14mph
Humidity: 69%   Direction: 300°WNW
Pressure: 30.47"   Gusts: NA
Location:  39.12°N, 90.33°W
Report Text: KSET 271841Z AUTO 30012KT 10SM SCT029 BKN035 M01/M06 A3047 RMK AO2 T10061056
Loading
Personal Weather Stations






























Interactive Weather Map New forecast layout! Learn more

10-Day Weather Forecast

Advertisements
Track Severe Weather on mobile